Time;durP1;ratioP1;P1;durP2;ratioP2;P2;SDS_P1;SDS_P2;PMS_P1;PMS_P2;Temp;Humidity;BMP_temperature;BMP_pressure;BME280_temperature;BME280_humidity;BME280_pressure;Samples;Min_cycle;Max_cycle;Signal;HPM_P1;HPM_P2
2023/04/20 00:01:17;;;;;;;7.25;2.30;;;18.90;99.90;;;;;;5031204;28;20212;-74
2023/04/20 00:03:48;;;;;;;9.77;2.45;;;19.00;99.90;;;;;;5040718;28;20212;-74
2023/04/20 00:06:20;;;;;;;8.38;2.25;;;19.00;99.90;;;;;;5036157;28;20197;-76
2023/04/20 00:08:52;;;;;;;9.15;2.28;;;19.00;99.90;;;;;;5035379;28;20226;-75
2023/04/20 00:11:23;;;;;;;9.65;2.30;;;19.00;99.90;;;;;;5035025;28;20196;-75
2023/04/20 00:13:54;;;;;;;12.68;2.53;;;19.00;99.90;;;;;;5036375;28;20900;-75
2023/04/20 00:16:27;;;;;;;9.52;2.50;;;19.00;99.90;;;;;;5035710;28;20341;-74
2023/04/20 00:18:58;;;;;;;9.57;2.40;;;19.00;99.90;;;;;;5035041;28;20236;-75
2023/04/20 00:21:29;;;;;;;9.82;2.47;;;19.00;99.90;;;;;;5035210;28;20266;-76
2023/04/20 00:24:00;;;;;;;10.20;2.60;;;19.00;99.90;;;;;;5039375;28;20203;-77
2023/04/20 00:26:31;;;;;;;9.63;2.65;;;19.00;99.90;;;;;;5031313;28;20243;-75
2023/04/20 00:29:02;;;;;;;11.85;2.35;;;19.10;99.90;;;;;;5035614;28;20217;-75
2023/04/20 00:31:36;;;;;;;8.77;2.33;;;19.00;99.90;;;;;;5036262;28;20223;-76
2023/04/20 00:34:07;;;;;;;6.82;2.20;;;19.00;99.90;;;;;;5042056;28;20733;-74
2023/04/20 00:36:38;;;;;;;6.97;2.10;;;18.90;99.90;;;;;;5033579;28;20242;-75
2023/04/20 00:39:09;;;;;;;13.75;3.05;;;18.90;99.90;;;;;;5034644;28;20216;-75
2023/04/20 00:41:40;;;;;;;8.95;2.38;;;18.90;99.90;;;;;;5038234;28;20248;-74
2023/04/20 00:44:12;;;;;;;9.65;2.60;;;19.00;99.90;;;;;;5033757;28;20575;-76
2023/04/20 00:46:45;;;;;;;9.70;2.53;;;19.00;99.90;;;;;;5035183;28;20233;-75
2023/04/20 00:49:17;;;;;;;9.48;2.72;;;18.90;99.90;;;;;;5036685;28;20196;-74
2023/04/20 00:51:48;;;;;;;12.52;2.65;;;18.90;99.90;;;;;;5049920;28;20205;-74
2023/04/20 00:54:23;;;;;;;9.43;2.50;;;18.80;99.90;;;;;;5041267;28;20555;-75
2023/04/20 00:56:55;;;;;;;11.32;2.45;;;18.80;99.90;;;;;;5046261;28;20214;-75
2023/04/20 00:59:26;;;;;;;11.02;2.38;;;18.90;99.90;;;;;;5035002;28;20222;-76
2023/04/20 01:01:59;;;;;;;11.30;2.55;;;18.70;99.90;;;;;;5034931;28;20291;-75
2023/04/20 01:04:30;;;;;;;13.07;2.85;;;18.80;99.90;;;;;;5033045;28;20200;-75
2023/04/20 01:07:02;;;;;;;10.05;2.67;;;18.70;99.90;;;;;;5033423;28;20199;-75
2023/04/20 01:09:33;;;;;;;9.10;2.65;;;18.70;99.90;;;;;;5031971;28;20231;-75
2023/04/20 01:12:04;;;;;;;14.52;3.28;;;18.70;99.90;;;;;;5030766;28;20227;-75
2023/04/20 01:14:35;;;;;;;11.75;2.50;;;18.70;99.90;;;;;;5031143;28;20212;-73
2023/04/20 01:17:09;;;;;;;10.93;2.50;;;18.80;99.90;;;;;;5032338;28;20238;-75
2023/04/20 01:19:40;;;;;;;9.98;2.42;;;18.90;99.90;;;;;;5030781;28;22094;-75
2023/04/20 01:22:19;;;;;;;9.32;2.33;;;19.00;99.90;;;;;;5041155;28;20202;-75
2023/04/20 01:24:51;;;;;;;8.00;2.00;;;19.10;99.90;;;;;;5033524;28;20291;-76
2023/04/20 01:27:22;;;;;;;9.13;2.30;;;19.10;99.90;;;;;;5052687;28;20197;-76
2023/04/20 01:29:53;;;;;;;9.02;2.30;;;19.10;99.90;;;;;;5064125;28;20212;-76
2023/04/20 01:32:24;;;;;;;9.40;2.60;;;19.20;99.90;;;;;;5055133;28;20227;-76
2023/04/20 01:34:56;;;;;;;13.48;2.83;;;19.20;99.90;;;;;;5062995;28;20202;-76
2023/04/20 01:37:29;;;;;;;10.43;2.78;;;19.20;99.90;;;;;;5057894;28;20693;-75
2023/04/20 01:40:00;;;;;;;8.20;2.55;;;19.20;99.90;;;;;;5066443;28;20217;-76
2023/04/20 01:42:31;;;;;;;8.65;2.58;;;19.30;99.90;;;;;;5052816;28;20224;-75
2023/04/20 01:45:02;;;;;;;10.63;2.85;;;19.30;99.90;;;;;;5055582;28;20587;-76
2023/04/20 01:47:34;;;;;;;11.00;2.90;;;19.40;99.90;;;;;;5059251;28;20192;-75
2023/04/20 01:50:05;;;;;;;9.75;3.13;;;19.40;99.90;;;;;;5059473;28;20237;-75
2023/04/20 01:52:38;;;;;;;9.07;2.92;;;19.40;99.90;;;;;;5054111;28;20219;-75
2023/04/20 01:55:10;;;;;;;13.65;3.08;;;19.40;99.90;;;;;;5051508;28;20193;-75
2023/04/20 01:57:43;;;;;;;11.80;2.97;;;19.40;99.90;;;;;;5059567;28;20275;-75
2023/04/20 02:00:15;;;;;;;10.80;2.40;;;19.40;99.90;;;;;;5060960;28;20219;-76
2023/04/20 02:02:46;;;;;;;9.82;2.13;;;19.40;99.90;;;;;;5059708;28;20578;-76
2023/04/20 02:05:17;;;;;;;8.35;2.00;;;19.30;99.90;;;;;;5061321;28;20199;-76
2023/04/20 02:07:50;;;;;;;12.75;2.70;;;19.40;99.90;;;;;;5063941;28;20207;-76
2023/04/20 02:10:21;;;;;;;10.38;2.78;;;19.50;99.90;;;;;;5069025;28;20200;-77
2023/04/20 02:12:53;;;;;;;20.70;3.03;;;19.60;99.90;;;;;;5065703;28;20319;-76
2023/04/20 02:15:24;;;;;;;13.52;2.83;;;19.70;99.90;;;;;;5070383;28;20196;-76
2023/04/20 02:17:56;;;;;;;16.58;4.03;;;19.70;99.90;;;;;;5057425;28;20197;-77
2023/04/20 02:20:27;;;;;;;9.85;2.65;;;19.70;99.90;;;;;;5053652;28;20679;-75
2023/04/20 02:23:00;;;;;;;18.85;3.92;;;19.80;99.90;;;;;;5064589;28;20204;-76
2023/04/20 02:25:31;;;;;;;12.18;2.65;;;20.00;99.90;;;;;;5067969;28;20223;-76
2023/04/20 02:28:06;;;;;;;10.48;2.30;;;20.10;99.90;;;;;;5054859;28;20219;-76
2023/04/20 02:30:37;;;;;;;16.63;2.50;;;20.10;99.90;;;;;;5062812;28;20196;-76
2023/04/20 02:33:08;;;;;;;10.57;2.55;;;20.10;99.90;;;;;;5059034;28;20615;-75
2023/04/20 02:35:39;;;;;;;10.48;2.50;;;20.20;99.90;;;;;;5053692;28;20675;-75
2023/04/20 02:38:12;;;;;;;11.45;2.65;;;20.20;99.90;;;;;;5058720;28;20215;-76
2023/04/20 02:40:44;;;;;;;13.77;4.25;;;20.30;99.90;;;;;;5068174;28;20203;-76
2023/04/20 02:43:15;;;;;;;15.00;3.80;;;20.40;99.90;;;;;;5066268;28;20196;-76
2023/04/20 02:45:46;;;;;;;10.85;3.28;;;20.40;99.90;;;;;;5065348;28;20227;-75
2023/04/20 02:48:17;;;;;;;11.85;2.58;;;20.40;99.90;;;;;;5060104;28;20249;-76
2023/04/20 02:50:48;;;;;;;8.27;2.28;;;20.30;99.90;;;;;;5050189;28;20204;-75
2023/04/20 02:53:21;;;;;;;9.85;2.47;;;20.30;99.90;;;;;;5061492;28;20215;-76
2023/04/20 02:55:52;;;;;;;9.20;2.30;;;20.30;99.90;;;;;;5053854;28;20196;-76
2023/04/20 02:58:23;;;;;;;15.65;3.08;;;20.30;99.90;;;;;;5062201;28;20196;-78
2023/04/20 03:01:00;;;;;;;9.02;2.45;;;20.20;99.90;;;;;;5056443;28;20216;-77
2023/04/20 03:03:31;;;;;;;10.43;2.40;;;20.20;99.90;;;;;;5055042;28;20196;-75
2023/04/20 03:06:02;;;;;;;11.13;2.83;;;20.30;99.90;;;;;;5056575;28;20224;-76
2023/04/20 03:08:35;;;;;;;13.48;2.67;;;20.30;99.90;;;;;;5057608;28;20227;-78
2023/04/20 03:11:07;;;;;;;11.30;2.95;;;20.20;99.90;;;;;;5060734;28;20192;-79
2023/04/20 03:13:38;;;;;;;18.55;3.53;;;20.20;99.90;;;;;;5056697;28;20267;-78
2023/04/20 03:16:09;;;;;;;11.38;2.83;;;20.10;99.90;;;;;;5066982;28;20196;-78
2023/04/20 03:18:41;;;;;;;9.93;2.60;;;20.10;99.90;;;;;;5065509;28;20216;-77
2023/04/20 03:21:13;;;;;;;10.65;2.50;;;20.00;99.90;;;;;;5058408;28;20223;-77
2023/04/20 03:23:46;;;;;;;11.63;2.65;;;20.00;99.90;;;;;;5062445;28;20224;-78
2023/04/20 03:26:20;;;;;;;9.90;2.53;;;19.90;99.90;;;;;;5060992;28;20903;-76
2023/04/20 03:28:58;;;;;;;9.23;2.55;;;19.90;99.90;;;;;;5068374;28;20207;-77
2023/04/20 03:31:29;;;;;;;11.55;2.72;;;20.00;99.90;;;;;;5073656;28;20282;-78
2023/04/20 03:34:00;;;;;;;10.65;2.63;;;19.90;99.90;;;;;;5058328;28;20246;-77
2023/04/20 03:36:31;;;;;;;9.93;2.85;;;19.90;99.90;;;;;;5064683;28;20200;-80
2023/04/20 03:39:07;;;;;;;15.07;2.92;;;19.80;99.90;;;;;;5060404;28;20682;-80
2023/04/20 03:41:38;;;;;;;9.13;2.22;;;19.80;99.90;;;;;;5054932;28;20918;-78
2023/04/20 03:44:09;;;;;;;14.02;2.83;;;19.70;99.90;;;;;;5058861;28;20224;-73
2023/04/20 03:46:41;;;;;;;13.55;2.95;;;19.70;99.90;;;;;;5071197;28;20579;-76
2023/04/20 03:49:12;;;;;;;13.88;2.88;;;19.60;99.90;;;;;;5074033;28;20196;-75
2023/04/20 03:51:43;;;;;;;9.93;2.50;;;19.60;99.90;;;;;;5074198;28;20184;-77
2023/04/20 03:54:16;;;;;;;9.65;2.15;;;19.60;99.90;;;;;;5068252;28;20223;-77
2023/04/20 03:56:48;;;;;;;10.82;2.60;;;19.60;99.90;;;;;;5073629;28;20195;-76
2023/04/20 03:59:19;;;;;;;13.13;3.17;;;19.60;99.90;;;;;;5072209;28;20697;-77
2023/04/20 04:01:50;;;;;;;12.30;3.08;;;19.50;99.90;;;;;;5070767;28;20240;-76
2023/04/20 04:04:21;;;;;;;10.68;2.55;;;19.50;99.90;;;;;;5053785;28;20295;-76
2023/04/20 04:06:52;;;;;;;9.50;2.83;;;19.50;99.90;;;;;;5053526;28;20196;-76
2023/04/20 04:09:25;;;;;;;10.45;2.78;;;19.40;99.90;;;;;;5053361;28;20216;-76
2023/04/20 04:11:57;;;;;;;9.68;3.00;;;19.50;99.90;;;;;;5061611;28;20196;-76
2023/04/20 04:14:28;;;;;;;13.25;2.42;;;19.50;99.90;;;;;;5067977;28;20223;-75
2023/04/20 04:17:00;;;;;;;11.73;2.83;;;19.50;99.90;;;;;;5070282;28;20196;-76
2023/04/20 04:19:31;;;;;;;11.45;2.40;;;19.50;99.90;;;;;;5060912;28;20192;-75
2023/04/20 04:22:02;;;;;;;11.88;2.70;;;19.50;99.90;;;;;;5073395;28;20192;-76
2023/04/20 04:24:36;;;;;;;10.20;2.88;;;19.50;99.90;;;;;;5073042;28;20329;-77
2023/04/20 04:27:09;;;;;;;8.30;2.17;;;19.50;99.90;;;;;;5061667;28;20259;-76
2023/04/20 04:29:40;;;;;;;7.70;2.13;;;19.50;99.90;;;;;;5056490;28;20227;-75
2023/04/20 04:32:12;;;;;;;8.13;2.42;;;19.50;99.90;;;;;;5061452;28;20201;-76
2023/04/20 04:34:43;;;;;;;12.73;3.00;;;19.50;99.90;;;;;;5055000;28;20662;-76
2023/04/20 04:37:15;;;;;;;11.35;2.33;;;19.50;99.90;;;;;;5064814;28;20220;-76
2023/04/20 04:39:48;;;;;;;9.13;2.42;;;19.60;99.90;;;;;;5061790;28;20192;-75
2023/04/20 04:42:20;;;;;;;12.48;2.70;;;19.60;99.90;;;;;;5073390;28;20195;-76
2023/04/20 04:44:51;;;;;;;10.48;2.78;;;19.70;99.90;;;;;;5060749;28;20483;-76
2023/04/20 04:47:22;;;;;;;13.70;3.08;;;19.70;99.90;;;;;;5071574;28;20196;-72
2023/04/20 04:49:53;;;;;;;12.10;2.85;;;19.70;99.90;;;;;;5063342;28;20216;-76
2023/04/20 04:52:25;;;;;;;11.77;2.60;;;19.70;99.90;;;;;;5054558;28;20196;-76
2023/04/20 04:54:58;;;;;;;15.02;2.60;;;19.80;99.90;;;;;;5052960;28;20220;-76
2023/04/20 04:57:29;;;;;;;14.75;2.83;;;19.80;99.90;;;;;;5064330;28;20212;-76
2023/04/20 05:00:01;;;;;;;8.00;2.45;;;19.80;99.90;;;;;;5059830;28;20211;-76
2023/04/20 05:02:36;;;;;;;9.27;2.80;;;19.90;99.90;;;;;;5064189;28;20220;-78
2023/04/20 05:05:07;;;;;;;9.88;2.80;;;19.90;99.90;;;;;;5064988;28;20667;-77
2023/04/20 05:07:38;;;;;;;11.02;2.20;;;20.00;99.90;;;;;;5066902;28;20220;-78
2023/04/20 05:10:14;;;;;;;10.35;2.30;;;20.00;99.90;;;;;;5054083;28;20217;-77
2023/04/20 05:12:45;;;;;;;10.10;2.88;;;19.90;99.90;;;;;;5056356;28;20224;-78
2023/04/20 05:15:16;;;;;;;10.35;2.45;;;20.00;99.90;;;;;;5056329;28;20223;-77
2023/04/20 05:17:48;;;;;;;8.77;2.10;;;19.80;99.90;;;;;;5053817;28;20270;-78
2023/04/20 05:20:19;;;;;;;8.25;2.10;;;19.90;99.90;;;;;;5059211;28;20205;-77
2023/04/20 05:22:50;;;;;;;9.80;2.22;;;19.80;99.90;;;;;;5052662;28;20197;-77
2023/04/20 05:25:24;;;;;;;9.07;2.08;;;19.80;99.90;;;;;;5061843;28;20251;-78
2023/04/20 05:27:57;;;;;;;12.98;2.35;;;19.90;99.90;;;;;;5068986;28;20586;-77
2023/04/20 05:30:29;;;;;;;8.85;2.25;;;19.90;99.90;;;;;;5064943;28;20220;-78
2023/04/20 05:33:01;;;;;;;14.38;2.60;;;20.00;99.90;;;;;;5062470;28;20218;-78
2023/04/20 05:35:32;;;;;;;10.70;2.10;;;19.90;99.90;;;;;;5060049;28;20227;-79
2023/04/20 05:38:05;;;;;;;10.68;2.10;;;19.90;99.90;;;;;;5065094;28;20315;-76
2023/04/20 05:40:39;;;;;;;10.82;2.05;;;19.90;99.90;;;;;;5057231;28;20196;-80
2023/04/20 05:43:10;;;;;;;9.25;2.25;;;19.90;99.90;;;;;;5055373;28;20191;-80
2023/04/20 05:45:41;;;;;;;11.98;2.53;;;19.80;99.90;;;;;;5064454;28;20234;-78
2023/04/20 05:48:12;;;;;;;9.13;2.70;;;19.90;99.90;;;;;;5070201;28;20213;-77
2023/04/20 05:50:46;;;;;;;8.45;2.35;;;19.80;99.90;;;;;;5060541;28;20213;-78
2023/04/20 05:53:20;;;;;;;10.15;2.28;;;19.80;99.90;;;;;;5059624;28;20212;-76
2023/04/20 05:55:54;;;;;;;12.20;2.55;;;19.80;99.90;;;;;;5070223;28;20279;-76
2023/04/20 05:58:25;;;;;;;14.43;2.40;;;19.80;99.90;;;;;;5052228;28;20193;-77
2023/04/20 06:00:56;;;;;;;8.57;2.45;;;19.80;99.90;;;;;;5064234;28;20345;-77
2023/04/20 06:03:28;;;;;;;12.25;2.63;;;19.80;99.90;;;;;;5065363;28;20200;-77
2023/04/20 06:05:59;;;;;;;16.50;4.03;;;19.80;99.90;;;;;;5069451;28;20219;-77
2023/04/20 06:08:30;;;;;;;13.00;2.40;;;19.70;99.90;;;;;;5063299;28;20219;-78
2023/04/20 06:11:03;;;;;;;9.48;2.38;;;19.80;99.90;;;;;;5054347;28;20196;-78
2023/04/20 06:13:34;;;;;;;8.80;2.20;;;19.70;99.90;;;;;;5051078;28;20219;-78
2023/04/20 06:16:08;;;;;;;7.88;2.33;;;19.70;99.90;;;;;;5055054;28;20671;-78
2023/04/20 06:18:39;;;;;;;8.60;1.80;;;19.70;99.90;;;;;;5050583;28;20205;-77
2023/04/20 06:21:13;;;;;;;10.50;2.15;;;19.70;99.90;;;;;;5059377;28;20200;-77
2023/04/20 06:23:44;;;;;;;8.80;2.17;;;19.60;99.90;;;;;;5056443;28;20208;-76
2023/04/20 06:26:17;;;;;;;9.18;2.25;;;19.70;99.90;;;;;;5062055;28;20232;-77
2023/04/20 06:28:50;;;;;;;10.30;2.15;;;19.70;99.90;;;;;;5058865;28;20219;-77
2023/04/20 06:31:21;;;;;;;10.88;2.60;;;19.70;99.90;;;;;;5067809;28;20215;-77
2023/04/20 06:33:53;;;;;;;11.50;2.42;;;19.70;99.90;;;;;;5067516;28;20228;-77
2023/04/20 06:36:24;;;;;;;12.25;2.22;;;19.70;99.90;;;;;;5051095;28;20205;-76
2023/04/20 06:38:55;;;;;;;7.63;2.20;;;19.70;99.90;;;;;;5051107;28;20207;-76
2023/04/20 06:41:36;;;;;;;11.98;2.35;;;19.60;99.90;;;;;;5050410;28;20188;-76
2023/04/20 06:44:10;;;;;;;7.75;2.00;;;19.60;99.90;;;;;;5066341;28;20195;-75
2023/04/20 06:46:44;;;;;;;10.98;2.28;;;19.50;99.90;;;;;;5070560;28;20217;-75
2023/04/20 06:49:16;;;;;;;12.68;2.70;;;19.50;99.90;;;;;;5071741;28;20279;-76
2023/04/20 06:51:47;;;;;;;9.70;2.78;;;19.50;99.90;;;;;;5074145;28;20200;-74
2023/04/20 06:54:21;;;;;;;10.77;3.38;;;19.40;99.90;;;;;;5050305;28;20235;-75
2023/04/20 06:56:54;;;;;;;8.93;3.10;;;19.40;99.90;;;;;;5050004;28;20674;-77
2023/04/20 06:59:25;;;;;;;4.75;2.00;;;19.40;99.90;;;;;;5053345;28;20215;-77
2023/04/20 07:01:58;;;;;;;5.90;2.10;;;19.50;99.90;;;;;;5064939;28;22477;-76
2023/04/20 07:04:30;;;;;;;6.93;2.00;;;19.50;99.90;;;;;;5062843;28;20720;-76
2023/04/20 07:07:01;;;;;;;6.43;2.05;;;19.50;99.90;;;;;;5074245;28;20204;-78
2023/04/20 07:09:32;;;;;;;8.52;2.53;;;19.50;99.90;;;;;;5062798;28;20204;-78
2023/04/20 07:12:05;;;;;;;7.03;2.42;;;19.50;99.90;;;;;;5061533;28;20193;-76
2023/04/20 07:14:36;;;;;;;9.68;2.38;;;19.40;99.90;;;;;;5060674;28;20223;-77
2023/04/20 07:17:07;;;;;;;10.35;2.78;;;19.40;99.90;;;;;;5058673;28;20195;-78
2023/04/20 07:19:38;;;;;;;7.80;2.50;;;19.40;99.90;;;;;;5070997;28;20216;-76
2023/04/20 07:22:09;;;;;;;8.45;2.40;;;19.40;99.90;;;;;;5059981;28;20227;-75
2023/04/20 07:24:40;;;;;;;8.13;2.80;;;19.50;99.90;;;;;;5070957;28;20613;-75
2023/04/20 07:27:13;;;;;;;9.65;2.10;;;19.50;99.90;;;;;;5064408;28;20224;-77
2023/04/20 07:29:44;;;;;;;10.23;2.40;;;19.50;99.90;;;;;;5057373;28;20196;-78
2023/04/20 07:32:15;;;;;;;9.15;2.50;;;19.40;99.90;;;;;;5071097;28;20200;-76
2023/04/20 07:34:46;;;;;;;8.30;2.03;;;19.40;99.90;;;;;;5073995;28;20220;-76
2023/04/20 07:37:18;;;;;;;7.55;2.28;;;19.40;99.90;;;;;;5065484;28;20571;-77
2023/04/20 07:39:49;;;;;;;7.90;2.13;;;19.40;99.90;;;;;;5065603;28;20207;-76
2023/04/20 07:42:22;;;;;;;7.35;2.15;;;19.30;99.90;;;;;;5052663;28;20207;-76
2023/04/20 07:44:53;;;;;;;9.82;2.35;;;19.30;99.90;;;;;;5062976;28;21252;-76
2023/04/20 07:47:24;;;;;;;10.80;2.75;;;19.40;99.90;;;;;;5054887;28;20208;-77
2023/04/20 07:49:56;;;;;;;10.07;2.10;;;19.30;99.90;;;;;;5059953;28;20195;-74
2023/04/20 07:52:27;;;;;;;8.10;2.03;;;19.30;99.90;;;;;;5066879;28;20686;-73
2023/04/20 07:54:59;;;;;;;7.95;1.90;;;19.30;99.90;;;;;;5078800;28;20216;-76
2023/04/20 07:57:32;;;;;;;11.48;2.45;;;19.30;99.90;;;;;;5071328;28;20192;-76
2023/04/20 08:00:04;;;;;;;10.52;2.17;;;19.30;99.90;;;;;;5064215;28;20192;-77
2023/04/20 08:02:35;;;;;;;8.35;1.80;;;19.30;99.90;;;;;;5067319;28;20667;-77
2023/04/20 08:05:07;;;;;;;9.77;1.95;;;19.20;99.90;;;;;;5068377;28;20215;-76
2023/04/20 08:07:38;;;;;;;7.47;2.10;;;19.30;99.90;;;;;;5055466;28;20212;-76
2023/04/20 08:10:10;;;;;;;8.13;2.08;;;19.30;99.90;;;;;;5062522;28;20223;-77
2023/04/20 08:12:43;;;;;;;7.60;2.00;;;19.30;99.90;;;;;;5057726;28;20201;-76
2023/04/20 08:15:14;;;;;;;9.18;2.50;;;19.30;99.90;;;;;;5059078;28;20599;-76
2023/04/20 08:17:45;;;;;;;9.65;2.20;;;19.30;99.90;;;;;;5056064;28;20209;-75
2023/04/20 08:20:16;;;;;;;11.00;3.60;;;19.30;99.90;;;;;;5058089;28;20207;-76
2023/04/20 08:22:48;;;;;;;8.07;2.80;;;19.20;99.90;;;;;;5061222;28;20613;-75
2023/04/20 08:25:19;;;;;;;8.27;3.13;;;19.20;99.90;;;;;;5067549;28;20229;-76
2023/04/20 08:27:52;;;;;;;11.50;2.53;;;19.20;99.90;;;;;;5068131;28;20214;-74
2023/04/20 08:30:23;;;;;;;9.20;2.42;;;19.20;99.90;;;;;;5062795;28;20219;-75
2023/04/20 08:32:54;;;;;;;7.57;2.38;;;19.20;99.90;;;;;;5066817;28;20200;-75
2023/04/20 08:35:26;;;;;;;9.15;2.20;;;19.20;99.90;;;;;;5063318;28;20258;-75
2023/04/20 08:37:57;;;;;;;9.95;3.05;;;19.20;99.90;;;;;;5071308;28;20204;-76
2023/04/20 08:40:28;;;;;;;12.75;4.43;;;19.20;99.90;;;;;;5068861;28;20203;-77
2023/04/20 08:43:02;;;;;;;8.80;4.53;;;19.20;99.90;;;;;;5053965;28;20207;-74
2023/04/20 08:45:33;;;;;;;13.40;4.88;;;19.20;99.90;;;;;;5057206;28;20199;-75
2023/04/20 08:48:09;;;;;;;12.13;4.05;;;19.20;99.90;;;;;;5055442;28;20223;-76
2023/04/20 08:50:44;;;;;;;13.10;4.32;;;19.20;99.90;;;;;;5052626;28;20195;-76
2023/04/20 08:53:15;;;;;;;10.98;2.95;;;19.20;99.90;;;;;;5059172;28;20216;-75
2023/04/20 08:55:46;;;;;;;11.73;2.80;;;19.30;99.90;;;;;;5062524;28;20294;-78
2023/04/20 08:58:19;;;;;;;10.13;2.75;;;19.30;99.90;;;;;;5070361;28;20196;-77
2023/04/20 09:00:50;;;;;;;8.63;2.63;;;19.20;99.90;;;;;;5060284;28;20216;-77
2023/04/20 09:03:35;;;;;;;15.82;5.15;;;19.20;99.90;;;;;;5055622;28;20196;-76
2023/04/20 09:06:06;;;;;;;9.30;3.28;;;19.20;99.90;;;;;;5063978;28;20196;-75
2023/04/20 09:08:41;;;;;;;11.90;3.50;;;19.20;99.90;;;;;;5062053;28;20203;-75
2023/04/20 09:11:24;;;;;;;7.63;2.45;;;19.30;99.90;;;;;;5056880;28;20192;-75
2023/04/20 09:14:05;;;;;;;6.78;2.50;;;19.30;99.90;;;;;;5052378;28;20682;-75
2023/04/20 09:16:39;;;;;;;9.30;2.85;;;19.30;99.90;;;;;;5054533;28;20273;-75
2023/04/20 09:19:11;;;;;;;9.45;2.70;;;19.30;99.90;;;;;;5041146;28;20578;-74
2023/04/20 09:21:52;;;;;;;8.65;2.20;;;19.40;99.90;;;;;;5041562;28;20196;-75
2023/04/20 09:24:24;;;;;;;8.45;2.20;;;19.40;99.90;;;;;;5050817;28;20197;-75
2023/04/20 09:26:55;;;;;;;9.20;2.33;;;19.40;99.90;;;;;;5062545;28;20239;-76
2023/04/20 09:29:29;;;;;;;7.30;2.45;;;19.40;99.90;;;;;;5069064;28;20196;-75
2023/04/20 09:32:00;;;;;;;9.70;2.40;;;19.50;99.90;;;;;;5069750;28;20200;-75
2023/04/20 09:34:31;;;;;;;6.35;1.90;;;19.50;99.90;;;;;;5065218;28;20683;-75
2023/04/20 09:37:02;;;;;;;6.82;2.00;;;19.50;99.90;;;;;;5062386;28;20215;-75
2023/04/20 09:39:34;;;;;;;9.90;2.00;;;19.50;99.90;;;;;;5046395;28;22062;-75
2023/04/20 09:42:07;;;;;;;8.18;2.25;;;19.50;99.90;;;;;;5042448;28;20201;-76
2023/04/20 09:44:42;;;;;;;8.18;2.30;;;19.50;99.90;;;;;;5037161;28;20239;-77
2023/04/20 09:47:18;;;;;;;10.75;2.13;;;19.50;99.90;;;;;;5040077;28;20221;-75
2023/04/20 09:49:49;;;;;;;7.53;1.65;;;19.50;99.90;;;;;;5040479;28;20242;-75
2023/04/20 09:52:21;;;;;;;7.47;2.20;;;19.50;99.90;;;;;;5040347;28;20200;-77
2023/04/20 09:54:52;;;;;;;5.70;1.95;;;19.50;99.90;;;;;;5040841;28;20230;-75
2023/04/20 09:57:25;;;;;;;7.82;2.20;;;19.50;99.90;;;;;;5040495;28;20219;-76
2023/04/20 09:59:59;;;;;;;6.88;1.85;;;19.50;99.90;;;;;;5063430;28;20687;-76
2023/04/20 10:02:30;;;;;;;8.93;2.15;;;19.50;99.90;;;;;;5061493;28;20195;-75
2023/04/20 10:05:02;;;;;;;11.18;2.80;;;19.50;99.90;;;;;;5052323;28;20215;-75
2023/04/20 10:07:34;;;;;;;9.25;2.45;;;19.60;99.90;;;;;;5043003;28;20275;-77
2023/04/20 10:10:11;;;;;;;7.30;2.38;;;19.60;99.90;;;;;;5047569;28;20226;-78
2023/04/20 10:12:52;;;;;;;9.32;2.13;;;19.60;99.90;;;;;;5041216;28;20248;-77
2023/04/20 10:15:26;;;;;;;7.38;2.13;;;19.50;99.90;;;;;;5049714;28;20224;-77
2023/04/20 10:17:57;;;;;;;8.52;2.20;;;19.60;99.90;;;;;;5040917;28;20201;-76
2023/04/20 10:20:29;;;;;;;6.93;1.92;;;19.60;99.90;;;;;;5042995;28;20230;-77
2023/04/20 10:23:13;;;;;;;8.32;2.20;;;19.70;99.90;;;;;;5041980;28;20224;-77
2023/04/20 10:25:46;;;;;;;5.30;1.90;;;19.70;99.90;;;;;;5052752;28;20271;-78
2023/04/20 10:28:17;;;;;;;8.75;1.98;;;19.70;99.90;;;;;;5042173;28;20200;-77
2023/04/20 10:30:56;;;;;;;6.15;1.80;;;19.70;99.90;;;;;;5040823;28;20192;-77
2023/04/20 10:33:27;;;;;;;4.38;1.75;;;19.70;99.90;;;;;;5040355;28;20204;-78
2023/04/20 10:35:58;;;;;;;5.50;1.52;;;19.70;99.90;;;;;;5037852;28;21946;-78
2023/04/20 10:38:35;;;;;;;6.70;1.60;;;19.70;99.90;;;;;;5036931;28;20197;-76
2023/04/20 10:41:12;;;;;;;8.10;1.90;;;19.70;99.90;;;;;;5032714;28;20315;-75
2023/04/20 10:43:44;;;;;;;7.35;2.15;;;19.70;99.90;;;;;;5030506;28;20204;-77
2023/04/20 10:46:23;;;;;;;7.40;2.00;;;19.70;99.90;;;;;;5030395;28;20671;-77
2023/04/20 10:49:00;;;;;;;5.63;1.65;;;19.70;99.90;;;;;;5031045;28;20204;-77
2023/04/20 10:51:31;;;;;;;6.22;2.10;;;19.70;99.90;;;;;;5031659;28;20679;-78
2023/04/20 10:54:05;;;;;;;8.38;1.80;;;19.70;99.90;;;;;;5029120;28;20344;-77
2023/04/20 10:56:43;;;;;;;6.65;1.80;;;19.70;99.90;;;;;;5031897;28;20954;-76
2023/04/20 10:59:15;;;;;;;5.88;1.52;;;19.70;99.90;;;;;;5028900;28;20633;-77
2023/04/20 11:01:49;;;;;;;6.50;1.70;;;19.70;99.90;;;;;;5030185;28;20215;-77
2023/04/20 11:04:30;;;;;;;8.77;2.55;;;19.70;99.90;;;;;;5032117;28;20702;-75
2023/04/20 11:07:08;;;;;;;11.70;3.88;;;19.80;99.90;;;;;;5030884;28;20204;-77
2023/04/20 11:09:39;;;;;;;7.07;2.40;;;19.60;99.90;;;;;;5041003;28;20361;-77
2023/04/20 11:12:13;;;;;;;8.57;2.65;;;19.50;99.90;;;;;;5030686;28;20201;-75
2023/04/20 11:14:56;;;;;;;11.32;3.15;;;19.50;99.90;;;;;;5029360;28;20211;-77
2023/04/20 11:17:37;;;;;;;8.60;2.38;;;19.50;99.90;;;;;;5030035;28;20282;-77
2023/04/20 11:20:10;;;;;;;7.20;2.50;;;19.40;99.90;;;;;;5030849;28;20578;-78
2023/04/20 11:22:42;;;;;;;7.03;2.42;;;19.40;99.90;;;;;;5029673;28;20603;-77
2023/04/20 11:25:14;;;;;;;9.38;2.40;;;19.40;99.90;;;;;;5029308;28;20236;-76
2023/04/20 11:27:46;;;;;;;6.10;2.47;;;19.40;99.90;;;;;;5029071;28;20211;-77
2023/04/20 11:30:17;;;;;;;5.97;2.08;;;19.40;99.90;;;;;;5029203;28;20223;-78
2023/04/20 11:32:57;;;;;;;10.55;2.55;;;19.40;99.90;;;;;;5030298;28;20208;-77
2023/04/20 11:35:28;;;;;;;7.45;2.08;;;19.40;99.90;;;;;;5028972;28;20708;-78
2023/04/20 11:38:00;;;;;;;6.43;2.03;;;19.30;99.90;;;;;;5029338;28;21193;-77
2023/04/20 11:40:31;;;;;;;9.20;2.00;;;19.40;99.90;;;;;;5032504;28;20201;-77
2023/04/20 11:43:03;;;;;;;9.55;2.47;;;19.30;99.90;;;;;;5030370;28;20667;-75
2023/04/20 11:45:35;;;;;;;7.07;2.40;;;19.30;99.90;;;;;;5030998;28;20204;-77
2023/04/20 11:48:09;;;;;;;6.97;2.45;;;19.30;99.90;;;;;;5028467;28;20331;-77
2023/04/20 11:50:40;;;;;;;7.03;2.08;;;19.30;99.90;;;;;;5031844;28;20585;-78
2023/04/20 11:53:13;;;;;;;5.93;1.98;;;19.30;99.90;;;;;;5040640;28;20199;-78
2023/04/20 11:55:44;;;;;;;6.13;2.00;;;19.30;99.90;;;;;;5031673;28;20358;-77
2023/04/20 11:58:15;;;;;;;11.57;2.38;;;19.20;99.90;;;;;;5033079;28;20220;-77
2023/04/20 12:00:46;;;;;;;9.95;2.30;;;19.20;99.90;;;;;;5034099;28;20200;-77
2023/04/20 12:03:19;;;;;;;10.05;2.58;;;19.20;99.90;;;;;;5033448;28;20207;-78
2023/04/20 12:05:51;;;;;;;9.80;2.50;;;19.10;99.90;;;;;;5033200;28;20317;-77
2023/04/20 12:08:23;;;;;;;6.82;2.10;;;19.00;99.90;;;;;;5039841;28;20200;-77
2023/04/20 12:10:55;;;;;;;5.75;2.33;;;19.00;99.90;;;;;;5031003;28;20206;-77
2023/04/20 12:13:26;;;;;;;8.48;2.40;;;19.10;99.90;;;;;;5034859;28;20247;-77
2023/04/20 12:15:57;;;;;;;11.43;2.35;;;19.20;99.90;;;;;;5033240;28;20220;-77
2023/04/20 12:18:30;;;;;;;6.28;1.80;;;19.10;99.90;;;;;;5033117;28;20772;-78
2023/04/20 12:21:01;;;;;;;8.25;2.45;;;19.10;99.90;;;;;;5034191;28;20204;-77
2023/04/20 12:23:33;;;;;;;6.80;2.30;;;19.00;99.90;;;;;;5031987;28;20201;-75
2023/04/20 12:26:04;;;;;;;7.95;2.45;;;19.00;99.90;;;;;;5034644;28;20231;-77
2023/04/20 12:28:35;;;;;;;5.35;1.90;;;19.00;99.90;;;;;;5038656;28;20297;-76
2023/04/20 12:31:06;;;;;;;4.03;1.80;;;19.00;99.90;;;;;;5066800;28;20659;-76
2023/04/20 12:33:39;;;;;;;6.65;2.10;;;19.00;99.90;;;;;;5033193;28;20200;-78
2023/04/20 12:36:11;;;;;;;7.22;2.10;;;19.00;99.90;;;;;;5032858;28;20230;-76
2023/04/20 12:38:42;;;;;;;6.53;2.33;;;19.00;99.90;;;;;;5035267;28;20200;-77
2023/04/20 12:41:17;;;;;;;8.80;2.65;;;19.00;99.90;;;;;;5031320;28;20235;-76
2023/04/20 12:43:48;;;;;;;6.13;2.40;;;19.00;99.90;;;;;;5032967;28;20286;-76
2023/04/20 12:46:19;;;;;;;9.00;2.50;;;18.90;99.90;;;;;;5031284;28;20247;-76
2023/04/20 12:48:52;;;;;;;5.82;2.22;;;18.90;99.90;;;;;;5033000;28;20830;-76
2023/04/20 12:51:23;;;;;;;6.47;2.47;;;18.80;99.90;;;;;;5033307;28;20548;-76
2023/04/20 12:53:55;;;;;;;4.38;2.20;;;18.80;99.90;;;;;;5032295;28;20699;-76
2023/04/20 12:56:26;;;;;;;4.88;2.00;;;18.70;99.90;;;;;;5033036;28;20767;-77
2023/04/20 12:58:58;;;;;;;4.88;2.00;;;18.70;99.90;;;;;;5034977;28;20259;-76
2023/04/20 13:01:29;;;;;;;7.50;2.10;;;18.70;99.90;;;;;;5032576;28;20934;-77
2023/04/20 13:04:02;;;;;;;5.63;2.10;;;18.70;99.90;;;;;;5035222;28;20215;-76
2023/04/20 13:06:33;;;;;;;5.55;2.03;;;18.60;99.90;;;;;;5031698;28;20208;-77
2023/04/20 13:09:05;;;;;;;6.72;2.10;;;18.50;99.90;;;;;;5038787;28;20203;-77